Time;durP1;ratioP1;P1;durP2;ratioP2;P2;SDS_P1;SDS_P2;PMS_P1;PMS_P2;Temp;Humidity;BMP_temperature;BMP_pressure;BME280_temperature;BME280_humidity;BME280_pressure;Samples;Min_cycle;Max_cycle;Signal;HPM_P1;HPM_P2
2021/06/15 00:01:28;;;;;;;5.50;2.60;;;;;;;;;;5053042;28;20375;-76
2021/06/15 00:03:54;;;;;;;4.95;2.30;;;;;;;;;;5053275;28;20037;-76
2021/06/15 00:06:19;;;;;;;5.45;2.50;;;;;;;;;;5052025;28;20051;-76
2021/06/15 00:08:45;;;;;;;5.28;3.08;;;;;;;;;;5053042;28;20028;-76
2021/06/15 00:11:10;;;;;;;16.45;2.80;;;;;;;;;;5053331;28;20021;-76
2021/06/15 00:13:35;;;;;;;4.32;2.83;;;;;;;;;;5052624;28;20475;-76
2021/06/15 00:16:01;;;;;;;6.80;4.07;;;;;;;;;;5052720;28;20033;-76
2021/06/15 00:18:27;;;;;;;6.53;2.83;;;;;;;;;;5053050;28;20455;-76
2021/06/15 00:20:52;;;;;;;5.32;3.50;;;;;;;;;;5053105;28;20052;-76
2021/06/15 00:23:19;;;;;;;6.35;3.65;;;;;;;;;;5053025;28;20045;-76
2021/06/15 00:25:45;;;;;;;4.35;2.83;;;;;;;;;;5052867;28;20441;-76
2021/06/15 00:28:10;;;;;;;4.35;2.78;;;;;;;;;;5052924;28;20044;-76
2021/06/15 00:30:36;;;;;;;6.18;2.50;;;;;;;;;;5053223;28;20082;-76
2021/06/15 00:33:02;;;;;;;3.72;2.13;;;;;;;;;;5053119;28;20356;-76
2021/06/15 00:35:27;;;;;;;6.72;2.42;;;;;;;;;;5052963;28;20052;-76
2021/06/15 00:37:53;;;;;;;5.85;2.85;;;;;;;;;;5052590;28;20056;-76
2021/06/15 00:40:20;;;;;;;6.80;3.45;;;;;;;;;;5052937;28;20437;-76
2021/06/15 00:42:46;;;;;;;7.03;3.05;;;;;;;;;;5052967;28;20037;-76
2021/06/15 00:45:16;;;;;;;4.50;2.80;;;;;;;;;;5052659;28;20382;-76
2021/06/15 00:47:45;;;;;;;8.50;2.97;;;;;;;;;;5034726;28;20039;-77
2021/06/15 00:50:11;;;;;;;4.35;3.00;;;;;;;;;;5052871;28;20380;-77
2021/06/15 00:52:37;;;;;;;6.60;3.08;;;;;;;;;;5052781;28;20082;-76
2021/06/15 00:55:04;;;;;;;4.15;2.70;;;;;;;;;;5052832;28;20082;-76
2021/06/15 00:57:30;;;;;;;4.57;2.70;;;;;;;;;;5051516;28;20116;-76
2021/06/15 00:59:58;;;;;;;4.55;2.90;;;;;;;;;;5070714;28;20479;-76
2021/06/15 01:02:26;;;;;;;4.05;2.97;;;;;;;;;;5071024;28;20029;-76
2021/06/15 01:04:52;;;;;;;9.02;3.25;;;;;;;;;;5054725;28;20136;-78
2021/06/15 01:07:29;;;;;;;4.88;3.05;;;;;;;;;;5071660;28;20060;-76
2021/06/15 01:10:10;;;;;;;5.90;2.88;;;;;;;;;;5071497;28;20082;-77
2021/06/15 01:13:04;;;;;;;8.50;4.38;;;;;;;;;;5071632;28;20025;-76
2021/06/15 01:15:38;;;;;;;6.00;3.13;;;;;;;;;;5072566;28;20036;-76
2021/06/15 01:18:10;;;;;;;7.85;3.25;;;;;;;;;;5071277;28;20119;-76
2021/06/15 01:20:39;;;;;;;10.07;3.63;;;;;;;;;;5071290;28;20039;-76
2021/06/15 01:23:27;;;;;;;9.07;3.47;;;;;;;;;;5072780;28;20037;-76
2021/06/15 01:26:06;;;;;;;8.40;4.93;;;;;;;;;;5072385;28;20056;-76
2021/06/15 01:28:57;;;;;;;7.13;3.60;;;;;;;;;;5067401;28;20051;-76
2021/06/15 01:31:25;;;;;;;7.00;3.28;;;;;;;;;;5055863;28;20112;-76
2021/06/15 01:34:14;;;;;;;8.02;3.33;;;;;;;;;;5056055;28;20071;-77
2021/06/15 01:36:55;;;;;;;7.93;3.67;;;;;;;;;;5054825;28;20098;-76
2021/06/15 01:39:25;;;;;;;5.82;3.30;;;;;;;;;;5055808;28;20033;-76
2021/06/15 01:42:21;;;;;;;9.50;3.42;;;;;;;;;;5055423;28;20083;-76
2021/06/15 01:44:51;;;;;;;8.95;3.90;;;;;;;;;;5054637;28;20041;-76
2021/06/15 01:47:17;;;;;;;8.13;3.53;;;;;;;;;;5054405;28;20383;-77
2021/06/15 01:49:50;;;;;;;10.82;4.13;;;;;;;;;;5055935;28;20070;-76
2021/06/15 01:52:19;;;;;;;6.75;3.50;;;;;;;;;;5054718;28;20032;-77
2021/06/15 01:54:47;;;;;;;6.40;3.35;;;;;;;;;;5055575;28;20459;-77
2021/06/15 01:57:20;;;;;;;9.18;3.90;;;;;;;;;;5054987;28;20041;-76
2021/06/15 01:59:50;;;;;;;12.10;3.90;;;;;;;;;;5072505;28;20036;-77
2021/06/15 02:02:17;;;;;;;4.97;3.15;;;;;;;;;;5075279;28;20429;-77
2021/06/15 02:04:49;;;;;;;13.02;3.70;;;;;;;;;;5075728;28;20033;-77
2021/06/15 02:07:19;;;;;;;7.43;3.55;;;;;;;;;;5074074;28;20059;-78
2021/06/15 02:09:48;;;;;;;10.75;3.42;;;;;;;;;;5074439;28;20086;-77
2021/06/15 02:12:40;;;;;;;5.53;3.60;;;;;;;;;;5074108;28;20078;-77
2021/06/15 02:15:47;;;;;;;10.15;4.50;;;;;;;;;;5033961;28;20041;-77
2021/06/15 02:18:31;;;;;;;7.93;3.60;;;;;;;;;;5020336;28;20069;-77
2021/06/15 02:21:10;;;;;;;8.13;3.40;;;;;;;;;;5055937;28;20045;-76
2021/06/15 02:23:39;;;;;;;9.23;3.10;;;;;;;;;;5075128;28;20119;-76
2021/06/15 02:26:09;;;;;;;12.40;3.25;;;;;;;;;;5075343;28;20086;-76
2021/06/15 02:28:40;;;;;;;6.13;3.60;;;;;;;;;;5065311;28;20053;-76
2021/06/15 02:31:10;;;;;;;8.55;3.28;;;;;;;;;;5054749;28;20112;-76
2021/06/15 02:33:42;;;;;;;8.02;3.28;;;;;;;;;;5054893;28;20094;-77
2021/06/15 02:36:12;;;;;;;10.88;3.40;;;;;;;;;;5053806;28;20044;-77
2021/06/15 02:38:45;;;;;;;4.68;3.05;;;;;;;;;;5054096;28;20043;-77
2021/06/15 02:41:15;;;;;;;7.35;3.58;;;;;;;;;;5053781;28;20116;-76
2021/06/15 02:43:43;;;;;;;4.47;3.17;;;;;;;;;;5053215;28;20037;-77
2021/06/15 02:46:13;;;;;;;6.15;2.85;;;;;;;;;;5053601;28;20033;-76
2021/06/15 02:48:42;;;;;;;7.68;3.42;;;;;;;;;;5054237;28;20033;-77
2021/06/15 02:51:09;;;;;;;8.32;3.60;;;;;;;;;;5053733;28;20393;-82
2021/06/15 02:53:39;;;;;;;5.95;3.30;;;;;;;;;;5055511;28;20036;-76
2021/06/15 02:56:19;;;;;;;7.25;2.85;;;;;;;;;;5056660;28;20380;-79
2021/06/15 02:58:47;;;;;;;4.53;2.92;;;;;;;;;;5074644;28;20032;-79
2021/06/15 03:01:13;;;;;;;4.88;2.40;;;;;;;;;;5083084;28;20025;-78
2021/06/15 03:03:47;;;;;;;4.05;2.80;;;;;;;;;;5074331;28;20040;-78
2021/06/15 03:06:12;;;;;;;5.70;2.90;;;;;;;;;;5074588;28;20028;-78
2021/06/15 03:08:40;;;;;;;13.40;4.10;;;;;;;;;;5074461;28;20037;-79
2021/06/15 03:11:07;;;;;;;9.10;3.50;;;;;;;;;;5082281;28;20037;-79
2021/06/15 03:13:39;;;;;;;6.55;3.35;;;;;;;;;;5080479;28;20494;-79
2021/06/15 03:16:08;;;;;;;7.85;3.50;;;;;;;;;;5079962;28;20068;-79
2021/06/15 03:18:57;;;;;;;6.45;3.50;;;;;;;;;;5081260;28;20028;-79
2021/06/15 03:21:26;;;;;;;6.47;3.53;;;;;;;;;;5080488;28;20032;-79
2021/06/15 03:24:03;;;;;;;5.68;3.50;;;;;;;;;;5080913;28;20394;-79
2021/06/15 03:26:39;;;;;;;9.88;3.92;;;;;;;;;;5082163;28;20032;-79
2021/06/15 03:29:10;;;;;;;9.70;3.88;;;;;;;;;;5067400;28;20029;-79
2021/06/15 03:31:41;;;;;;;7.03;3.80;;;;;;;;;;5060457;28;20028;-79
2021/06/15 03:34:11;;;;;;;4.85;3.40;;;;;;;;;;5059433;28;20033;-79
2021/06/15 03:36:39;;;;;;;10.05;3.40;;;;;;;;;;5042471;28;20041;-79
2021/06/15 03:39:06;;;;;;;7.70;3.88;;;;;;;;;;5058423;28;20468;-79
2021/06/15 03:41:33;;;;;;;5.05;3.97;;;;;;;;;;5060451;28;20467;-79
2021/06/15 03:44:03;;;;;;;8.82;3.58;;;;;;;;;;5057822;28;20091;-79
2021/06/15 03:46:31;;;;;;;9.52;4.10;;;;;;;;;;5058830;28;20090;-80
2021/06/15 03:48:58;;;;;;;11.95;3.35;;;;;;;;;;5058455;28;20112;-80
2021/06/15 03:51:28;;;;;;;6.22;3.30;;;;;;;;;;5059279;28;20051;-80
2021/06/15 03:54:05;;;;;;;10.32;4.55;;;;;;;;;;5061820;28;20037;-80
2021/06/15 03:56:34;;;;;;;13.43;4.63;;;;;;;;;;5062162;28;20498;-80
2021/06/15 03:58:59;;;;;;;15.27;4.30;;;;;;;;;;5060446;28;20127;-80
2021/06/15 04:01:25;;;;;;;4.72;3.65;;;;;;;;;;5043872;28;20061;-80
2021/06/15 04:03:52;;;;;;;8.48;3.65;;;;;;;;;;5059647;28;20028;-80
2021/06/15 04:06:20;;;;;;;6.60;3.35;;;;;;;;;;5059594;28;20585;-81
2021/06/15 04:08:48;;;;;;;5.70;3.50;;;;;;;;;;5060451;28;20510;-80
2021/06/15 04:11:15;;;;;;;8.32;3.35;;;;;;;;;;5058250;28;20075;-80
2021/06/15 04:13:42;;;;;;;8.23;3.45;;;;;;;;;;5059859;28;20384;-80
2021/06/15 04:16:08;;;;;;;6.32;3.78;;;;;;;;;;5059563;28;20051;-80
2021/06/15 04:18:35;;;;;;;11.52;3.60;;;;;;;;;;5057183;28;20041;-79
2021/06/15 04:21:06;;;;;;;8.65;5.00;;;;;;;;;;5059036;28;20025;-79
2021/06/15 04:23:56;;;;;;;8.13;3.97;;;;;;;;;;5058939;28;20032;-80
2021/06/15 04:26:22;;;;;;;7.07;3.58;;;;;;;;;;5058421;28;20040;-79
2021/06/15 04:28:47;;;;;;;8.38;3.75;;;;;;;;;;5048583;28;20025;-79
2021/06/15 04:31:15;;;;;;;8.90;3.92;;;;;;;;;;5038180;28;20034;-79
2021/06/15 04:33:46;;;;;;;7.13;4.00;;;;;;;;;;5037999;28;20037;-79
2021/06/15 04:36:12;;;;;;;12.15;3.30;;;;;;;;;;5036393;28;20132;-79
2021/06/15 04:38:54;;;;;;;9.35;3.85;;;;;;;;;;5038372;28;20030;-79
2021/06/15 04:41:25;;;;;;;9.48;4.35;;;;;;;;;;5036328;28;20029;-79
2021/06/15 04:43:54;;;;;;;8.07;3.40;;;;;;;;;;5037276;28;20048;-79
2021/06/15 04:46:29;;;;;;;9.32;3.72;;;;;;;;;;5036861;28;20117;-79
2021/06/15 04:49:10;;;;;;;6.72;3.70;;;;;;;;;;5037373;28;20090;-79
2021/06/15 04:51:36;;;;;;;5.50;3.17;;;;;;;;;;5037113;28;20033;-79
2021/06/15 04:54:03;;;;;;;7.43;3.83;;;;;;;;;;5036715;28;20052;-79
2021/06/15 04:56:29;;;;;;;6.00;3.78;;;;;;;;;;5019162;28;20053;-79
2021/06/15 04:58:57;;;;;;;5.70;3.88;;;;;;;;;;5056953;28;20044;-79
2021/06/15 05:01:23;;;;;;;6.30;3.60;;;;;;;;;;5079733;28;20063;-79
2021/06/15 05:03:50;;;;;;;12.57;4.90;;;;;;;;;;5080394;28;20040;-79
2021/06/15 05:06:17;;;;;;;7.72;4.07;;;;;;;;;;5081062;28;20123;-79
2021/06/15 05:08:54;;;;;;;7.43;3.95;;;;;;;;;;5080895;28;20535;-79
2021/06/15 05:11:20;;;;;;;7.38;4.32;;;;;;;;;;5081726;28;20386;-79
2021/06/15 05:13:47;;;;;;;7.00;4.32;;;;;;;;;;5080906;28;20043;-79
2021/06/15 05:16:14;;;;;;;10.38;4.63;;;;;;;;;;5081390;28;20123;-79
2021/06/15 05:18:40;;;;;;;9.70;4.70;;;;;;;;;;5079906;28;20048;-79
2021/06/15 05:21:30;;;;;;;25.20;5.50;;;;;;;;;;5081209;28;20044;-79
2021/06/15 05:24:01;;;;;;;8.65;4.40;;;;;;;;;;5080489;28;20028;-79
2021/06/15 05:26:28;;;;;;;9.52;4.30;;;;;;;;;;5081288;28;20501;-79
2021/06/15 05:28:53;;;;;;;9.15;3.97;;;;;;;;;;5074290;28;20063;-79
2021/06/15 05:31:19;;;;;;;7.93;4.43;;;;;;;;;;5064118;28;20371;-79
2021/06/15 05:33:44;;;;;;;8.98;4.38;;;;;;;;;;5060418;28;20039;-79
2021/06/15 05:36:11;;;;;;;8.77;4.50;;;;;;;;;;5061411;28;20514;-78
2021/06/15 05:38:36;;;;;;;10.20;4.95;;;;;;;;;;5063063;28;20033;-79
2021/06/15 05:41:02;;;;;;;7.50;4.20;;;;;;;;;;5062620;28;20040;-78
2021/06/15 05:43:27;;;;;;;8.38;3.97;;;;;;;;;;5060461;28;20040;-78
2021/06/15 05:45:53;;;;;;;8.07;5.13;;;;;;;;;;5061131;28;20055;-78
2021/06/15 05:48:18;;;;;;;16.80;4.35;;;;;;;;;;5061686;28;20137;-78
2021/06/15 05:50:44;;;;;;;10.20;4.47;;;;;;;;;;5063389;28;20036;-78
2021/06/15 05:53:10;;;;;;;10.25;4.63;;;;;;;;;;5060798;28;20127;-78
2021/06/15 05:55:35;;;;;;;7.53;4.78;;;;;;;;;;5061759;28;20044;-78
2021/06/15 05:58:01;;;;;;;5.97;4.18;;;;;;;;;;5064826;28;20033;-78
2021/06/15 06:00:26;;;;;;;11.38;5.22;;;;;;;;;;5081665;28;20058;-78
2021/06/15 06:02:52;;;;;;;6.50;4.10;;;;;;;;;;5082916;28;20178;-78
2021/06/15 06:10:27;;;;;;;11.02;4.95;;;;;;;;;;5083776;28;20067;-78
2021/06/15 06:12:52;;;;;;;10.32;4.68;;;;;;;;;;5080992;28;20062;-78
2021/06/15 06:15:18;;;;;;;9.77;4.35;;;;;;;;;;5082528;28;20040;-78
2021/06/15 06:17:44;;;;;;;13.43;4.78;;;;;;;;;;5082117;28;20518;-78
2021/06/15 06:20:12;;;;;;;10.73;4.45;;;;;;;;;;5081265;28;20044;-79
2021/06/15 06:22:39;;;;;;;8.90;3.85;;;;;;;;;;5082202;28;20131;-79
2021/06/15 06:25:06;;;;;;;6.13;3.83;;;;;;;;;;5081775;28;20482;-79
2021/06/15 06:27:32;;;;;;;13.15;4.65;;;;;;;;;;5079909;28;20033;-79
2021/06/15 06:29:57;;;;;;;8.68;4.38;;;;;;;;;;5062299;28;20493;-79
2021/06/15 06:32:23;;;;;;;9.00;4.15;;;;;;;;;;5058853;28;20033;-79
2021/06/15 06:34:48;;;;;;;8.38;4.18;;;;;;;;;;5060372;28;20076;-79
2021/06/15 06:37:13;;;;;;;7.30;3.72;;;;;;;;;;5058476;28;20048;-79
2021/06/15 06:39:41;;;;;;;13.48;4.63;;;;;;;;;;5060668;28;20042;-79
2021/06/15 06:42:07;;;;;;;13.60;4.10;;;;;;;;;;5061240;28;20360;-79
2021/06/15 06:44:32;;;;;;;7.22;3.50;;;;;;;;;;5059108;28;20048;-79
2021/06/15 06:46:58;;;;;;;7.43;3.45;;;;;;;;;;5058937;28;20052;-82
2021/06/15 06:49:23;;;;;;;6.63;3.58;;;;;;;;;;5057872;28;20033;-79
2021/06/15 06:51:49;;;;;;;10.20;3.63;;;;;;;;;;5041891;28;20029;-81
2021/06/15 06:54:14;;;;;;;5.88;3.10;;;;;;;;;;5058552;28;20033;-79
2021/06/15 06:56:39;;;;;;;6.22;3.20;;;;;;;;;;5058944;28;20465;-81
2021/06/15 06:59:05;;;;;;;7.95;3.67;;;;;;;;;;5062523;28;20049;-81
2021/06/15 07:01:30;;;;;;;6.90;3.53;;;;;;;;;;5059995;28;20128;-79
2021/06/15 07:03:56;;;;;;;9.10;3.72;;;;;;;;;;5060331;28;20043;-80
2021/06/15 07:06:21;;;;;;;7.63;4.00;;;;;;;;;;5066095;28;20041;-80
2021/06/15 07:08:48;;;;;;;9.38;3.40;;;;;;;;;;5064763;28;20040;-81
2021/06/15 07:11:13;;;;;;;9.23;3.97;;;;;;;;;;5058367;28;20028;-77
2021/06/15 07:13:38;;;;;;;10.63;3.92;;;;;;;;;;5056971;28;20083;-77
2021/06/15 07:16:04;;;;;;;7.50;3.13;;;;;;;;;;5059631;28;20822;-78
2021/06/15 07:18:30;;;;;;;12.55;3.55;;;;;;;;;;5056668;28;20037;-78
2021/06/15 07:20:56;;;;;;;9.45;3.35;;;;;;;;;;5055724;28;20097;-77
2021/06/15 07:23:21;;;;;;;8.45;3.65;;;;;;;;;;5054406;28;20132;-77
2021/06/15 07:25:47;;;;;;;9.18;3.65;;;;;;;;;;5052606;28;20032;-76
2021/06/15 07:28:12;;;;;;;9.23;3.75;;;;;;;;;;5053388;28;20392;-77
2021/06/15 07:30:38;;;;;;;8.10;3.80;;;;;;;;;;5053700;28;20037;-75
2021/06/15 07:33:03;;;;;;;9.85;3.30;;;;;;;;;;5053343;28;20096;-76
2021/06/15 07:35:29;;;;;;;7.32;3.00;;;;;;;;;;5053711;28;20048;-74
2021/06/15 07:37:55;;;;;;;9.65;3.17;;;;;;;;;;5051947;28;20040;-73
2021/06/15 07:40:24;;;;;;;6.88;3.45;;;;;;;;;;5052426;28;20037;-74
2021/06/15 07:42:54;;;;;;;6.95;3.92;;;;;;;;;;5053171;28;20044;-75
2021/06/15 07:45:21;;;;;;;7.13;3.22;;;;;;;;;;5053244;28;20053;-75
2021/06/15 07:47:46;;;;;;;8.05;3.85;;;;;;;;;;5052914;28;20068;-74
2021/06/15 07:50:14;;;;;;;6.10;2.90;;;;;;;;;;5053590;28;20087;-74
2021/06/15 07:52:39;;;;;;;7.22;3.20;;;;;;;;;;5052713;28;20115;-76
2021/06/15 07:55:06;;;;;;;6.93;3.05;;;;;;;;;;5053047;28;20120;-76
2021/06/15 07:57:31;;;;;;;9.57;3.28;;;;;;;;;;5052802;28;20037;-76
2021/06/15 07:59:56;;;;;;;7.97;3.38;;;;;;;;;;5053133;28;20032;-75
2021/06/15 08:02:22;;;;;;;5.53;2.92;;;;;;;;;;5052829;28;20060;-76
2021/06/15 08:04:47;;;;;;;7.35;3.20;;;;;;;;;;5053390;28;20033;-75
2021/06/15 08:07:14;;;;;;;5.88;3.35;;;;;;;;;;5052947;28;20072;-75
2021/06/15 08:09:39;;;;;;;6.22;3.20;;;;;;;;;;5053188;28;20028;-76
2021/06/15 08:12:05;;;;;;;9.85;3.92;;;;;;;;;;5053152;28;20041;-75
2021/06/15 08:14:30;;;;;;;9.00;3.35;;;;;;;;;;5051446;28;20074;-75
2021/06/15 08:16:56;;;;;;;7.75;3.65;;;;;;;;;;5052181;28;20033;-75
2021/06/15 08:19:21;;;;;;;5.75;3.25;;;;;;;;;;5052778;28;20041;-76
2021/06/15 08:21:47;;;;;;;7.78;3.72;;;;;;;;;;5053125;28;20029;-76
2021/06/15 08:24:15;;;;;;;10.48;3.60;;;;;;;;;;5052728;28;20393;-75
2021/06/15 08:26:42;;;;;;;7.20;3.60;;;;;;;;;;5052995;28;20037;-75
2021/06/15 08:29:07;;;;;;;10.00;3.75;;;;;;;;;;5051939;28;20086;-75
2021/06/15 08:31:33;;;;;;;11.05;4.18;;;;;;;;;;5053024;28;20119;-77
2021/06/15 08:33:58;;;;;;;14.10;3.90;;;;;;;;;;5052625;28;20171;-77
2021/06/15 08:36:25;;;;;;;7.10;4.05;;;;;;;;;;5055492;28;20037;-77
2021/06/15 08:38:50;;;;;;;10.25;3.42;;;;;;;;;;5057468;28;20147;-79
2021/06/15 08:41:19;;;;;;;8.18;3.53;;;;;;;;;;5057929;28;20035;-77
2021/06/15 08:43:46;;;;;;;9.45;3.67;;;;;;;;;;5058314;28;20037;-81
2021/06/15 08:46:12;;;;;;;8.40;3.55;;;;;;;;;;5059876;28;20067;-79
2021/06/15 08:48:38;;;;;;;14.63;3.95;;;;;;;;;;5038559;28;20116;-77
2021/06/15 08:51:04;;;;;;;8.98;3.58;;;;;;;;;;5052750;28;20064;-78
2021/06/15 08:53:36;;;;;;;8.90;4.13;;;;;;;;;;5060485;28;20037;-77
2021/06/15 08:56:24;;;;;;;8.95;3.70;;;;;;;;;;5060045;28;20041;-82
2021/06/15 08:58:59;;;;;;;5.65;3.25;;;;;;;;;;5061176;28;20051;-78
2021/06/15 09:01:25;;;;;;;6.85;3.53;;;;;;;;;;5058932;28;20040;-77
2021/06/15 09:03:52;;;;;;;9.60;3.58;;;;;;;;;;5057613;28;20029;-78
2021/06/15 09:06:19;;;;;;;5.55;3.50;;;;;;;;;;5058585;28;20040;-79
2021/06/15 09:08:52;;;;;;;9.18;3.35;;;;;;;;;;5058217;28;20486;-79
2021/06/15 09:11:18;;;;;;;6.15;2.90;;;;;;;;;;5062682;28;20047;-79
2021/06/15 09:13:43;;;;;;;8.70;3.20;;;;;;;;;;5061660;28;20033;-79
2021/06/15 09:16:32;;;;;;;5.43;2.40;;;;;;;;;;5060502;28;20656;-80
2021/06/15 09:19:00;;;;;;;9.30;3.30;;;;;;;;;;5041652;28;20045;-80
2021/06/15 09:21:29;;;;;;;5.35;2.88;;;;;;;;;;5041570;28;20037;-81
2021/06/15 09:24:06;;;;;;;7.13;2.80;;;;;;;;;;5041506;28;20491;-79
2021/06/15 09:26:50;;;;;;;11.15;2.97;;;;;;;;;;5041410;28;20042;-79
2021/06/15 09:29:16;;;;;;;6.20;2.88;;;;;;;;;;5023641;28;20068;-80
2021/06/15 09:31:51;;;;;;;21.65;4.13;;;;;;;;;;5041131;28;20040;-77
2021/06/15 09:34:17;;;;;;;9.93;2.97;;;;;;;;;;5037652;28;20037;-77
2021/06/15 09:36:43;;;;;;;9.73;3.53;;;;;;;;;;5039276;28;20112;-80
2021/06/15 09:39:09;;;;;;;11.77;3.67;;;;;;;;;;5040744;28;20426;-81
2021/06/15 09:41:34;;;;;;;9.45;3.28;;;;;;;;;;5041295;28;20076;-80
2021/06/15 09:44:20;;;;;;;7.65;3.33;;;;;;;;;;5040028;28;20064;-79
2021/06/15 09:46:50;;;;;;;;;;;;;;;;;;5041965;28;20483;-79
2021/06/15 09:49:32;;;;;;;11.18;3.75;;;;;;;;;;5059390;28;19935;-79
2021/06/15 09:52:09;;;;;;;10.98;3.90;;;;;;;;;;5059810;28;20108;-79
2021/06/15 09:54:58;;;;;;;7.28;3.50;;;;;;;;;;5059646;28;20083;-80
2021/06/15 09:57:26;;;;;;;10.27;3.35;;;;;;;;;;5057142;28;20071;-79
2021/06/15 10:00:14;;;;;;;10.68;3.92;;;;;;;;;;5057716;28;20036;-79
2021/06/15 10:02:47;;;;;;;9.90;4.30;;;;;;;;;;5059803;28;20044;-78
2021/06/15 10:05:31;;;;;;;12.10;3.92;;;;;;;;;;5060160;28;20040;-77
2021/06/15 10:08:08;;;;;;;13.80;4.43;;;;;;;;;;5056189;28;20033;-80
2021/06/15 10:10:38;;;;;;;9.88;3.92;;;;;;;;;;5057374;28;20040;-80
2021/06/15 10:13:06;;;;;;;9.70;4.20;;;;;;;;;;5056875;28;20391;-78
2021/06/15 10:15:32;;;;;;;9.55;3.67;;;;;;;;;;5057476;28;20036;-78
2021/06/15 10:17:59;;;;;;;8.95;3.55;;;;;;;;;;5044679;28;20048;-80
2021/06/15 10:20:30;;;;;;;9.20;4.05;;;;;;;;;;5037649;28;20044;-76
2021/06/15 10:22:56;;;;;;;7.90;3.28;;;;;;;;;;5042691;28;20067;-81
2021/06/15 10:25:24;;;;;;;6.35;3.22;;;;;;;;;;5038642;28;20038;-79
2021/06/15 10:27:50;;;;;;;9.15;2.97;;;;;;;;;;5040092;28;20030;-79
2021/06/15 10:30:18;;;;;;;7.68;2.65;;;;;;;;;;5039038;28;20506;-81
2021/06/15 10:32:52;;;;;;;15.48;2.85;;;;;;;;;;5041022;28;20038;-82
2021/06/15 10:35:36;;;;;;;6.38;2.63;;;;;;;;;;5038638;28;20029;-84
2021/06/15 10:38:03;;;;;;;7.65;2.60;;;;;;;;;;5036392;28;20048;-82
2021/06/15 10:40:31;;;;;;;5.43;2.88;;;;;;;;;;5036991;28;20068;-78
2021/06/15 10:43:09;;;;;;;5.90;2.92;;;;;;;;;;5039882;28;20044;-79
2021/06/15 10:45:34;;;;;;;8.05;3.47;;;;;;;;;;5039482;28;20049;-80
2021/06/15 10:48:23;;;;;;;6.47;2.97;;;;;;;;;;5065222;28;20071;-81
2021/06/15 10:50:51;;;;;;;11.40;3.13;;;;;;;;;;5079804;28;20068;-79
2021/06/15 10:53:33;;;;;;;6.00;2.83;;;;;;;;;;5079003;28;20043;-79
2021/06/15 10:56:14;;;;;;;9.30;3.20;;;;;;;;;;5079074;28;20036;-80
2021/06/15 10:58:42;;;;;;;5.07;2.67;;;;;;;;;;5079981;28;20040;-81
2021/06/15 11:01:18;;;;;;;7.78;3.40;;;;;;;;;;5079702;28;20047;-78
2021/06/15 11:03:51;;;;;;;10.57;3.83;;;;;;;;;;5074780;28;20364;-77
2021/06/15 11:06:36;;;;;;;6.68;2.70;;;;;;;;;;5075663;28;20036;-77
2021/06/15 11:09:17;;;;;;;4.63;2.83;;;;;;;;;;5074304;28;20168;-78
2021/06/15 11:11:46;;;;;;;6.15;2.75;;;;;;;;;;5076539;28;20374;-78
2021/06/15 11:14:19;;;;;;;10.35;2.72;;;;;;;;;;5074778;28;20402;-79
2021/06/15 11:16:47;;;;;;;4.90;2.30;;;;;;;;;;5073334;28;20089;-77
2021/06/15 11:19:13;;;;;;;7.28;2.30;;;;;;;;;;5058595;28;20792;-78
2021/06/15 11:21:46;;;;;;;10.70;3.35;;;;;;;;;;5054849;28;20064;-78
2021/06/15 11:24:21;;;;;;;8.80;3.22;;;;;;;;;;5056196;28;20043;-77
2021/06/15 11:26:52;;;;;;;6.63;3.38;;;;;;;;;;5056063;28;20524;-77
2021/06/15 11:29:36;;;;;;;58.05;5.25;;;;;;;;;;5057071;28;20033;-79
2021/06/15 11:32:24;;;;;;;8.00;3.42;;;;;;;;;;5057737;28;20439;-78
2021/06/15 11:34:52;;;;;;;8.02;2.58;;;;;;;;;;5056265;28;20045;-78
2021/06/15 11:37:29;;;;;;;6.30;2.88;;;;;;;;;;5058441;28;20090;-78
2021/06/15 11:40:16;;;;;;;5.85;2.75;;;;;;;;;;5060294;28;20033;-78
2021/06/15 11:42:43;;;;;;;4.35;2.95;;;;;;;;;;5059540;28;20036;-78
2021/06/15 11:45:43;;;;;;;6.03;2.70;;;;;;;;;;5058055;28;20120;-78
2021/06/15 11:48:19;;;;;;;8.90;2.72;;;;;;;;;;5037658;28;20099;-78
2021/06/15 11:50:54;;;;;;;5.68;2.97;;;;;;;;;;5021325;28;20041;-78
2021/06/15 11:53:21;;;;;;;5.57;2.63;;;;;;;;;;5038628;28;20033;-78
2021/06/15 11:55:51;;;;;;;7.35;2.65;;;;;;;;;;5037987;28;20514;-78
2021/06/15 11:58:25;;;;;;;8.73;3.10;;;;;;;;;;5036793;28;20040;-78
2021/06/15 12:00:53;;;;;;;7.93;2.97;;;;;;;;;;5036296;28;20045;-78
2021/06/15 12:03:21;;;;;;;5.95;2.85;;;;;;;;;;5036172;28;20053;-78
2021/06/15 12:05:59;;;;;;;6.15;2.58;;;;;;;;;;5037708;28;20491;-78
2021/06/15 12:08:37;;;;;;;7.25;2.67;;;;;;;;;;5036442;28;20048;-78
2021/06/15 12:11:05;;;;;;;5.75;2.80;;;;;;;;;;5037355;28;20368;-78
2021/06/15 12:13:32;;;;;;;9.48;3.28;;;;;;;;;;5042013;28;20423;-78
2021/06/15 12:16:12;;;;;;;6.03;2.97;;;;;;;;;;5038246;28;20471;-77
2021/06/15 12:18:44;;;;;;;8.90;3.28;;;;;;;;;;5074683;28;20555;-78
2021/06/15 12:21:22;;;;;;;6.03;3.70;;;;;;;;;;5080767;28;20041;-78
2021/06/15 12:23:48;;;;;;;10.05;3.40;;;;;;;;;;5084905;28;20474;-79
2021/06/15 12:26:16;;;;;;;10.02;3.72;;;;;;;;;;5083927;28;20033;-79
2021/06/15 12:28:55;;;;;;;7.28;3.60;;;;;;;;;;5085359;28;20032;-78
2021/06/15 12:31:34;;;;;;;16.48;3.58;;;;;;;;;;5082714;28;20028;-79
2021/06/15 12:34:08;;;;;;;7.57;3.50;;;;;;;;;;5086599;28;20039;-79
2021/06/15 12:36:38;;;;;;;7.72;3.42;;;;;;;;;;5088081;28;20402;-78
2021/06/15 12:39:15;;;;;;;6.32;3.40;;;;;;;;;;5084688;28;20028;-79
2021/06/15 12:41:44;;;;;;;7.05;3.58;;;;;;;;;;5085941;28;20455;-79
2021/06/15 12:44:10;;;;;;;11.25;3.97;;;;;;;;;;5084590;28;20059;-79
2021/06/15 12:46:37;;;;;;;13.35;4.18;;;;;;;;;;5084496;28;20028;-79
2021/06/15 12:49:06;;;;;;;11.15;4.20;;;;;;;;;;5063873;28;20025;-80
2021/06/15 12:52:06;;;;;;;9.85;3.90;;;;;;;;;;5060208;28;20025;-80
2021/06/15 12:54:36;;;;;;;14.27;3.92;;;;;;;;;;5061444;28;20056;-82
2021/06/15 12:57:07;;;;;;;8.65;3.00;;;;;;;;;;5043458;28;20044;-81
2021/06/15 12:59:35;;;;;;;6.95;2.95;;;;;;;;;;5059722;28;20506;-82
2021/06/15 13:02:18;;;;;;;7.38;3.40;;;;;;;;;;5061200;28;20033;-81
2021/06/15 13:04:53;;;;;;;7.18;3.63;;;;;;;;;;5061519;28;20124;-80
2021/06/15 13:07:19;;;;;;;;;;;;;;;;;;5060016;28;20490;-80
2021/06/15 13:09:46;;;;;;;5.45;3.03;;;;;;;;;;5059070;28;19912;-79
2021/06/15 13:12:25;;;;;;;10.63;3.30;;;;;;;;;;5058458;28;20041;-81
2021/06/15 13:14:56;;;;;;;5.35;3.00;;;;;;;;;;5061009;28;20649;-81
2021/06/15 13:17:26;;;;;;;7.00;2.70;;;;;;;;;;5067115;28;20032;-80
2021/06/15 13:20:00;;;;;;;3.72;2.35;;;;;;;;;;5080197;28;20045;-82
2021/06/15 13:22:26;;;;;;;13.05;3.70;;;;;;;;;;5083828;28;20104;-85
2021/06/15 13:24:53;;;;;;;4.60;2.75;;;;;;;;;;5085987;28;20071;-83
2021/06/15 13:27:23;;;;;;;7.55;3.30;;;;;;;;;;5085378;28;20028;-80
2021/06/15 13:29:50;;;;;;;7.38;3.45;;;;;;;;;;5082377;28;20036;-82
2021/06/15 13:32:18;;;;;;;5.35;3.05;;;;;;;;;;5080016;28;20029;-79
2021/06/15 13:35:08;;;;;;;4.03;2.58;;;;;;;;;;5079670;28;20119;-77
2021/06/15 13:37:55;;;;;;;5.28;2.28;;;;;;;;;;5079127;28;20094;-77
2021/06/15 13:40:41;;;;;;;5.65;2.55;;;;;;;;;;5079119;28;20445;-77
2021/06/15 13:43:28;;;;;;;13.70;3.08;;;;;;;;;;5074506;28;20411;-77
2021/06/15 13:46:00;;;;;;;8.43;2.78;;;;;;;;;;5043315;28;20056;-78
2021/06/15 13:48:26;;;;;;;4.40;2.40;;;;;;;;;;5063142;28;20072;-78
2021/06/15 13:50:51;;;;;;;6.85;2.70;;;;;;;;;;5061438;28;20033;-80
2021/06/15 13:53:18;;;;;;;12.77;3.63;;;;;;;;;;5061438;28;20124;-80
2021/06/15 13:55:46;;;;;;;11.20;2.95;;;;;;;;;;5059837;28;20071;-80
2021/06/15 13:58:14;;;;;;;12.70;3.00;;;;;;;;;;5060156;28;20119;-79
2021/06/15 14:00:41;;;;;;;9.75;2.70;;;;;;;;;;5058088;28;20045;-78
2021/06/15 14:03:08;;;;;;;9.15;2.53;;;;;;;;;;5059867;28;20132;-80
2021/06/15 14:05:34;;;;;;;5.10;2.60;;;;;;;;;;5062310;28;20075;-79
2021/06/15 14:07:59;;;;;;;7.13;2.72;;;;;;;;;;5059453;28;20036;-78
2021/06/15 14:10:26;;;;;;;7.28;2.50;;;;;;;;;;5056668;28;20120;-77
2021/06/15 14:12:54;;;;;;;11.68;3.40;;;;;;;;;;5055663;28;20041;-78
2021/06/15 14:15:21;;;;;;;6.65;2.45;;;;;;;;;;5056639;28;20048;-77
2021/06/15 14:17:48;;;;;;;3.88;2.17;;;;;;;;;;5056488;28;20041;-77
2021/06/15 14:20:17;;;;;;;6.30;2.28;;;;;;;;;;5057324;28;20037;-80
2021/06/15 14:22:44;;;;;;;5.30;2.47;;;;;;;;;;5058294;28;20037;-78
2021/06/15 14:25:14;;;;;;;4.22;2.58;;;;;;;;;;5059045;28;20032;-78
2021/06/15 14:27:40;;;;;;;5.45;2.95;;;;;;;;;;5059500;28;20114;-78
2021/06/15 14:30:09;;;;;;;6.97;3.45;;;;;;;;;;5059125;28;20518;-78
2021/06/15 14:32:35;;;;;;;7.35;2.83;;;;;;;;;;5056829;28;20043;-78
2021/06/15 14:35:00;;;;;;;5.20;2.20;;;;;;;;;;5057073;28;20115;-79
2021/06/15 14:37:26;;;;;;;5.22;2.20;;;;;;;;;;5057125;28;20054;-78
2021/06/15 14:39:51;;;;;;;6.70;2.75;;;;;;;;;;5061637;28;20084;-79
2021/06/15 14:42:17;;;;;;;4.50;1.90;;;;;;;;;;5064337;28;20396;-78
2021/06/15 14:44:42;;;;;;;5.22;2.00;;;;;;;;;;5062904;28;20053;-79
2021/06/15 14:47:08;;;;;;;5.03;1.92;;;;;;;;;;5067786;28;20032;-79
2021/06/15 14:49:35;;;;;;;3.00;2.08;;;;;;;;;;5087962;28;20526;-79
2021/06/15 14:52:00;;;;;;;3.38;2.08;;;;;;;;;;5087867;28;20429;-79
2021/06/15 14:54:26;;;;;;;16.15;7.15;;;;;;;;;;5087146;28;20041;-79
2021/06/15 14:56:52;;;;;;;9.05;4.38;;;;;;;;;;5086221;28;20161;-79
2021/06/15 14:59:18;;;;;;;5.00;2.63;;;;;;;;;;5087105;28;20056;-79
2021/06/15 15:01:43;;;;;;;9.10;7.10;;;;;;;;;;5087465;28;20481;-78
2021/06/15 15:04:10;;;;;;;11.25;6.88;;;;;;;;;;5086550;28;20040;-79